Aviation Digital Data Service (ADDS)

Output produced by METARs form (2101 UTC 24 April 2018)
found at http://aviationweather.gov/adds/metars/
 
METAR text: KOVE 242053Z AUTO 17003KT 10SM CLR 28/10 A2996 RMK AO2 SLP148 T02780100 58012
Conditions at: KOVE (OROVILLE , CA, US) observed 2053 UTC 24 April 2018
Temperature: 27.8°C (82°F)
Dewpoint: 10.0°C (50°F) [RH = 33%]
Pressure (altimeter): 29.96 inches Hg (1014.6 mb)
[Sea-level pressure: 1014.8 mb]
Winds: from the S (170 degrees) at 3 MPH (3 knots; 1.6 m/s)
Visibility: 10 or more miles (16+ km)
Ceiling: at least 12,000 feet AGL
Clouds: sky clear below 12,000 feet AGL
Weather: automated observation with no human augmentation;
there may or may not be significant weather present at this time